Aérodrome :







RETROUVEZ-NOUS SUR...

 
LOGIN :

S'inscrire | Disclaimer

   EN    FR    IT 

 









Légende :    VFR   VFR Marginal   IFR   IFR Intensif   IFR Très Intensif
Visi : 
Plafond : 
>= 8 km
>= 3000ft
5 à 8 km
1000 à 3000 ft
1500m à 5 km
500 à 1000 ft
800 à 1500m
200 à 500 ft
< 800m
< 200 ft
Symboles :   Orages  Brouillard  Fortes neiges  Fortes précipitations  Vent > 20 kt






- Altitude de l'aérodrome : 522 ft
- Code IATA : YBG


CYBG - CFB Bagotville

DERNIER METAR :
  • 261600Z 10015G20KT 4SM -PL DRSN BKN015 OVC040 M03/M04 A3008 RMK SC5SC3 VIS VRB 3-5 SLP197

METARs EXPIRÉS :
  • 261537Z 10016KT 4SM -SNPL DRSN BKN015 OVC040 M03/M04 A3009 RMK SC5SC3 VIS VRB 3-5 SLP201
  • 261523Z 09016KT 4SM -SN DRSN BKN015 OVC040 M03/M04 A3009 RMK SC5SC3 VIS VRB 3-5 SLP202
  • 261500Z 09017KT 2SM -SN DRSN BKN015 OVC040 M03/M04 A3011 RMK SC5SC3 VIS VRB 1-3 SLP209
  • 261400Z 10012G17KT 15SM -SN DRSN BKN012 OVC045 M03/M05 A3013 RMK SC5SC3 SLP215
  • 261339Z 10012KT 20SM -SN DRSN FEW015 OVC045 M04/M05 A3013 RMK SC2SC6 SLP216

TAF AMD TAF CYBG
Valide du 26 à 15h jusqu'au 27 à 12h UTC


261540Z 2615/2712 10015G25KT 6SM -SN BKN015 OVC040
TEMPO 2615/2619 2SM -SN -PL BR OVC008
FM261900 09015G25KT 6SM -PL OVC015
TEMPO 2619/2623 3SM -FZRA -FZDZ BR OVC008
FM262300 10012G22KT P6SM OVC012
TEMPO 2623/2704 3SM -FZRA -FZDZ BR OVC006
FM270400 10005KT P6SM OVC008
TEMPO 2704/2712 2SM -FZDZ BR OVC005 RMK NXT FCST BY 261800Z
FIR CZUL / Amérique du Nord



MET'MAP, la Météo Aéronautique d'un coup d'oeil ! - Copyright ORBIFLY Décembre 2007 - Disclaimer

ORBIFLY MET'MAP TEAM :

Programmation & Développement : Alexandra Zaïnal
Sur une idée originale de : Baudouin d'Aumeries
Assistance à la programmation : Marc-Olivier Méhu
Soutien technique & logistique : Manuel Goepfert

Contact : metmap@orbifly.com




SOURCES & CREDITS :

   NOAA